Colgrade, Louisiana
Current Conditions -  °F | °C
As of 10:35 PM on Sunday 25 Jan 2015 (Local Time) from KIER Reporting Station
Clear Clear  
Wind Chill: 51°   Ceiling: Unl
Heat Index: 51°   Visibility: 10mi
Dew Point: 33°   Wind: 9mph
Humidity: 49%   Direction: 300°WNW
Pressure: 30.07"   Gusts: NA
Location:  31.885°N, 92.6017°W
Report Text: KIER 260435Z AUTO 30008KT 10SM CLR 11/00 A3007 RMK AO2 T01060003
Loading
Personal Weather Stations






























Interactive Weather Map New forecast layout! Learn more

10-Day Weather Forecast

Advertisements
Track Severe Weather on mobile